Time;durP1;ratioP1;P1;durP2;ratioP2;P2;SDS_P1;SDS_P2;PMS_P1;PMS_P2;Temp;Humidity;BMP_temperature;BMP_pressure;BME280_temperature;BME280_humidity;BME280_pressure;Samples;Min_cycle;Max_cycle;Signal;HPM_P1;HPM_P2
2023/05/01 00:02:20;;;;;;;4.68;3.47;;;;;;;11.24;65.25;93906.06;5145517;27;20058;-74
2023/05/01 00:04:46;;;;;;;9.98;3.35;;;;;;;11.21;65.47;93908.59;5145490;27;20062;-74
2023/05/01 00:07:11;;;;;;;7.85;3.45;;;;;;;11.15;65.47;93901.84;5127616;27;20297;-74
2023/05/01 00:09:37;;;;;;;6.20;3.50;;;;;;;11.12;65.79;93902.47;5145915;27;20305;-74
2023/05/01 00:12:03;;;;;;;4.85;3.50;;;;;;;11.11;65.73;93917.69;5145523;27;20269;-74
2023/05/01 00:14:28;;;;;;;5.00;3.88;;;;;;;11.09;66.02;93905.75;5145262;27;20011;-75
2023/05/01 00:16:53;;;;;;;5.75;3.35;;;;;;;11.07;66.27;93906.06;5145698;27;20023;-75
2023/05/01 00:19:19;;;;;;;6.15;3.70;;;;;;;11.04;66.16;93909.38;5145337;27;20022;-75
2023/05/01 00:21:46;;;;;;;4.53;3.25;;;;;;;11.02;66.39;93901.69;5145423;27;20026;-75
2023/05/01 00:24:12;;;;;;;7.40;3.80;;;;;;;11.02;66.45;93912.34;5145670;27;20046;-75
2023/05/01 00:27:32;;;;;;;6.55;3.15;;;;;;;10.98;66.43;93906.09;5145008;27;20023;-75
2023/05/01 00:29:38;;;;;;;6.85;3.83;;;;;;;10.97;66.42;93907.19;5133493;27;20110;-75
2023/05/01 00:32:04;;;;;;;7.43;3.35;;;;;;;11.00;66.44;93908.44;5144874;27;20019;-75
2023/05/01 00:34:30;;;;;;;4.80;3.45;;;;;;;10.98;66.54;93905.31;5126301;27;20007;-75
2023/05/01 00:36:58;;;;;;;4.05;2.83;;;;;;;10.98;66.52;93911.41;5145257;27;20090;-75
2023/05/01 00:39:33;;;;;;;4.93;3.35;;;;;;;11.00;66.76;93908.44;5145520;27;20335;-74
2023/05/01 00:42:02;;;;;;;5.90;3.90;;;;;;;10.93;67.15;93919.59;5145153;27;20030;-74
2023/05/01 00:44:27;;;;;;;7.85;4.00;;;;;;;11.03;66.53;93918.47;5144898;27;20086;-74
2023/05/01 00:46:56;;;;;;;6.00;3.90;;;;;;;11.02;66.52;93914.25;5145122;27;20313;-75
2023/05/01 00:49:21;;;;;;;9.35;4.07;;;;;;;11.03;66.44;93926.47;5145406;27;20273;-74
2023/05/01 00:51:52;;;;;;;5.78;3.83;;;;;;;11.04;66.41;93926.16;5144823;27;20033;-74
2023/05/01 00:54:19;;;;;;;6.07;4.15;;;;;;;10.96;66.66;93929.63;5145127;27;20189;-74
2023/05/01 00:56:52;;;;;;;10.32;3.97;;;;;;;10.86;66.84;93927.25;5144956;27;20027;-75
2023/05/01 00:59:17;;;;;;;6.70;4.15;;;;;;;10.79;67.28;93926.94;5145285;27;20023;-75
2023/05/01 01:01:43;;;;;;;7.43;4.13;;;;;;;10.74;67.58;93935.88;5144586;27;20217;-75
2023/05/01 01:04:12;;;;;;;8.57;4.70;;;;;;;10.67;67.89;93924.13;5144787;27;20299;-74
2023/05/01 01:06:51;;;;;;;7.32;4.20;;;;;;;10.61;68.22;93940.25;5144964;27;20364;-76
2023/05/01 01:09:37;;;;;;;7.43;4.10;;;;;;;10.56;68.55;93932.41;5144581;27;20198;-75
2023/05/01 01:12:23;;;;;;;8.02;4.63;;;;;;;10.54;68.55;93939.13;5144485;27;20023;-75
2023/05/01 01:15:06;;;;;;;6.38;4.45;;;;;;;10.54;68.72;93939.94;5144617;27;20106;-74
2023/05/01 01:17:36;;;;;;;7.47;4.30;;;;;;;10.54;68.63;93939.94;5144601;27;20023;-74
2023/05/01 01:20:27;;;;;;;5.97;4.13;;;;;;;10.55;68.60;93930.81;5144820;27;20224;-74
2023/05/01 01:23:26;;;;;;;7.40;4.70;;;;;;;10.56;68.78;93931.59;5144897;27;20344;-74
2023/05/01 01:26:22;;;;;;;6.35;4.28;;;;;;;10.54;68.96;93934.59;5144576;27;20023;-74
2023/05/01 01:29:42;;;;;;;5.70;3.80;;;;;;;10.52;69.02;93942.13;5144253;27;20053;-74
2023/05/01 01:32:25;;;;;;;5.30;3.65;;;;;;;10.47;69.48;93938.81;5080894;28;20052;-74
2023/05/01 01:34:54;;;;;;;7.10;4.47;;;;;;;10.47;69.48;93936.13;5138557;27;20181;-74
2023/05/01 01:37:28;;;;;;;7.45;3.83;;;;;;;10.49;69.83;93940.06;5126177;27;20023;-74
2023/05/01 01:40:10;;;;;;;8.38;3.92;;;;;;;10.53;69.53;93949.00;5143906;27;20015;-74
2023/05/01 01:42:48;;;;;;;8.52;4.90;;;;;;;10.53;69.50;93940.22;5144116;27;20045;-74
2023/05/01 01:45:27;;;;;;;10.60;4.75;;;;;;;10.55;69.38;93946.81;5144016;27;20019;-73
2023/05/01 01:47:55;;;;;;;8.88;5.53;;;;;;;10.55;69.26;93943.38;5144039;27;20038;-74
2023/05/01 01:50:25;;;;;;;7.85;5.15;;;;;;;10.54;69.24;93942.59;5143965;27;20051;-74
2023/05/01 01:52:53;;;;;;;7.40;5.25;;;;;;;10.53;69.44;93949.00;5143538;27;20044;-74
2023/05/01 01:55:24;;;;;;;7.30;4.90;;;;;;;10.52;69.29;93946.63;5143799;27;20067;-74
2023/05/01 01:57:51;;;;;;;6.78;4.80;;;;;;;10.51;69.51;93940.53;5144276;27;20080;-74
2023/05/01 02:00:19;;;;;;;9.82;5.35;;;;;;;10.48;69.44;93937.69;5144308;27;20019;-73
2023/05/01 02:02:46;;;;;;;15.45;4.80;;;;;;;10.45;69.49;93936.44;5144522;27;20023;-74
2023/05/01 02:05:18;;;;;;;9.15;5.40;;;;;;;10.40;69.74;93933.91;5144995;27;20055;-74
2023/05/01 02:07:47;;;;;;;6.50;4.63;;;;;;;10.38;69.95;93936.09;5126393;27;20023;-75
2023/05/01 02:10:14;;;;;;;6.70;4.82;;;;;;;10.37;69.89;93939.88;5126704;27;20045;-74
2023/05/01 02:12:42;;;;;;;9.45;4.72;;;;;;;10.35;70.11;93928.72;5144150;27;20015;-75
2023/05/01 02:15:09;;;;;;;9.98;4.70;;;;;;;10.33;70.25;93934.38;5126168;28;20015;-75
2023/05/01 02:17:40;;;;;;;8.30;5.20;;;;;;;10.29;70.10;93927.28;5143299;27;20024;-74
2023/05/01 02:20:09;;;;;;;6.88;4.45;;;;;;;10.26;70.60;93926.03;5143981;28;20020;-75
2023/05/01 02:22:36;;;;;;;6.55;3.33;;;;;;;10.18;70.84;93932.88;5159588;27;20023;-74
2023/05/01 02:25:02;;;;;;;6.25;3.90;;;;;;;10.15;70.74;93919.38;5143780;28;20015;-75
2023/05/01 02:27:34;;;;;;;7.20;4.55;;;;;;;10.13;70.56;93919.69;5143852;28;20027;-75
2023/05/01 02:30:00;;;;;;;5.43;4.15;;;;;;;10.12;70.68;93928.00;5143584;28;20026;-75
2023/05/01 02:32:30;;;;;;;6.88;4.05;;;;;;;10.14;70.54;93931.16;5143943;28;20027;-75
2023/05/01 02:34:56;;;;;;;9.80;4.97;;;;;;;10.14;70.54;93937.25;5143339;28;20225;-74
2023/05/01 02:37:25;;;;;;;6.85;4.60;;;;;;;10.14;70.51;93934.59;5143278;28;20023;-75
2023/05/01 02:39:50;;;;;;;7.35;4.60;;;;;;;10.11;70.56;93932.53;5143428;28;20035;-75
2023/05/01 02:42:19;;;;;;;8.40;5.07;;;;;;;10.12;70.56;93928.78;5143705;28;20388;-75
2023/05/01 02:45:01;;;;;;;20.08;11.57;;;;;;;10.07;70.39;93930.78;5143404;28;20035;-75
2023/05/01 02:47:29;;;;;;;15.07;8.63;;;;;;;10.00;70.37;93931.25;5143360;28;20046;-75
2023/05/01 02:49:55;;;;;;;9.75;6.10;;;;;;;10.00;70.21;93936.56;5143356;28;20025;-74
2023/05/01 02:52:22;;;;;;;7.40;4.53;;;;;;;9.95;69.95;93940.16;5124948;28;20030;-74
2023/05/01 02:54:48;;;;;;;7.00;4.60;;;;;;;9.84;70.21;93946.84;5143800;28;20205;-74
2023/05/01 02:57:16;;;;;;;6.63;4.60;;;;;;;9.74;70.69;93942.56;5143699;28;20015;-74
2023/05/01 02:59:41;;;;;;;7.78;5.00;;;;;;;9.71;71.23;93951.16;5143624;28;20019;-74
2023/05/01 03:02:07;;;;;;;7.55;5.30;;;;;;;9.66;71.72;93943.28;5143258;28;20104;-74
2023/05/01 03:04:32;;;;;;;7.97;5.65;;;;;;;9.63;71.87;93949.22;5143124;28;20550;-74
2023/05/01 03:06:58;;;;;;;10.35;5.68;;;;;;;9.63;72.09;93944.69;5143393;28;20321;-73
2023/05/01 03:09:23;;;;;;;7.63;5.53;;;;;;;9.61;72.48;93944.22;5143020;28;20312;-74
2023/05/01 03:11:49;;;;;;;7.88;5.32;;;;;;;9.55;72.79;93941.97;5143159;28;20023;-73
2023/05/01 03:14:21;;;;;;;8.07;5.05;;;;;;;9.51;72.50;93941.03;5143364;28;20042;-74
2023/05/01 03:16:49;;;;;;;12.82;5.10;;;;;;;9.43;72.83;93935.31;5143213;28;20027;-74
2023/05/01 03:19:14;;;;;;;8.85;5.10;;;;;;;9.38;72.75;93932.81;5124393;28;20374;-73
2023/05/01 03:21:49;;;;;;;8.63;4.95;;;;;;;9.35;72.90;93936.06;5143568;28;20023;-74
2023/05/01 03:24:17;;;;;;;6.72;5.13;;;;;;;9.36;72.95;93929.66;5142451;28;20035;-74
2023/05/01 03:26:43;;;;;;;11.82;5.22;;;;;;;9.37;72.73;93936.53;5143055;28;20018;-73
2023/05/01 03:29:12;;;;;;;7.10;5.05;;;;;;;9.36;73.16;93934.19;5144659;27;20026;-73
2023/05/01 03:31:37;;;;;;;16.83;5.75;;;;;;;9.36;73.34;93945.63;5146875;27;20273;-75
2023/05/01 03:34:03;;;;;;;9.75;5.65;;;;;;;9.37;73.28;93944.53;5146859;27;20023;-75
2023/05/01 03:36:29;;;;;;;10.05;6.05;;;;;;;9.37;73.26;93952.50;5146910;27;20026;-75
2023/05/01 03:38:54;;;;;;;10.38;6.82;;;;;;;9.37;73.36;93954.38;5146867;27;20267;-75
2023/05/01 03:41:20;;;;;;;14.48;7.15;;;;;;;9.35;73.49;93960.00;5145990;27;20039;-75
2023/05/01 03:43:45;;;;;;;19.95;7.18;;;;;;;9.36;73.45;93960.78;5146816;27;20034;-73
2023/05/01 03:46:11;;;;;;;16.80;7.68;;;;;;;9.29;73.64;93961.22;5146872;27;20217;-75
2023/05/01 03:48:36;;;;;;;12.35;7.50;;;;;;;9.29;73.59;93977.16;5127943;27;20076;-75
2023/05/01 03:51:05;;;;;;;12.23;6.57;;;;;;;9.31;73.75;93982.19;5146677;27;20328;-75
2023/05/01 03:53:31;;;;;;;14.63;6.97;;;;;;;9.31;73.56;93982.97;5146069;27;20062;-75
2023/05/01 03:55:57;;;;;;;11.32;6.93;;;;;;;9.33;73.58;93980.78;5125463;28;20202;-74
2023/05/01 03:58:23;;;;;;;13.10;6.72;;;;;;;9.33;73.64;93982.69;5125562;28;20032;-74
2023/05/01 04:00:59;;;;;;;14.32;8.13;;;;;;;9.32;73.79;93989.88;5125513;28;20072;-74
2023/05/01 04:03:28;;;;;;;16.02;8.68;;;;;;;9.37;74.06;93988.97;5125319;28;20302;-74
2023/05/01 04:05:54;;;;;;;15.32;7.57;;;;;;;9.42;74.13;93989.63;5106991;28;20027;-74
2023/05/01 04:08:22;;;;;;;12.15;8.07;;;;;;;9.42;74.25;93986.97;5125550;28;20061;-74
2023/05/01 04:10:48;;;;;;;17.92;8.70;;;;;;;9.49;74.28;93991.09;5125496;28;20252;-73
2023/05/01 04:13:13;;;;;;;14.82;9.68;;;;;;;9.51;74.11;93984.38;5125435;28;20091;-74
2023/05/01 04:15:42;;;;;;;18.38;10.85;;;;;;;9.55;74.59;93989.88;5125438;28;20027;-74
2023/05/01 04:18:08;;;;;;;16.00;10.48;;;;;;;9.55;75.01;93993.31;5124889;28;20336;-75
2023/05/01 04:20:34;;;;;;;20.33;10.05;;;;;;;9.56;75.14;93986.13;5125020;28;20054;-74
2023/05/01 04:23:00;;;;;;;18.05;10.75;;;;;;;9.60;75.24;93989.75;5125283;28;20026;-74
2023/05/01 04:25:26;;;;;;;23.75;10.60;;;;;;;9.69;75.13;93985.28;5124945;28;20023;-73
2023/05/01 04:27:51;;;;;;;17.63;11.07;;;;;;;9.75;75.04;93992.03;5125131;28;20023;-73
2023/05/01 04:30:35;;;;;;;21.92;11.65;;;;;;;9.78;74.98;93983.44;5125185;28;20019;-75
2023/05/01 04:33:12;;;;;;;19.67;10.25;;;;;;;9.86;74.71;93986.47;5126938;28;20099;-75
2023/05/01 04:35:41;;;;;;;22.40;12.10;;;;;;;9.93;74.83;93986.81;5126689;28;20027;-74
2023/05/01 04:38:45;;;;;;;21.25;12.30;;;;;;;9.99;74.60;93988.25;5126303;28;20086;-75
2023/05/01 04:41:10;;;;;;;26.00;12.43;;;;;;;10.06;74.61;93987.84;5124783;28;20055;-75
2023/05/01 04:43:39;;;;;;;31.02;11.93;;;;;;;10.12;74.82;93997.25;5124899;28;20026;-74
2023/05/01 04:46:05;;;;;;;27.98;12.98;;;;;;;10.20;74.85;93999.19;5124350;28;20038;-74
2023/05/01 04:48:31;;;;;;;23.98;13.82;;;;;;;10.18;75.07;93996.81;5124544;28;20129;-74
2023/05/01 04:50:57;;;;;;;19.80;11.93;;;;;;;10.16;74.99;94004.31;5124316;28;20221;-74
2023/05/01 04:53:22;;;;;;;30.05;13.90;;;;;;;10.14;75.41;94003.06;5124495;28;20015;-74
2023/05/01 04:55:48;;;;;;;28.17;12.98;;;;;;;10.16;75.18;94009.66;5124224;28;20027;-74
2023/05/01 04:58:13;;;;;;;22.30;14.98;;;;;;;10.18;75.15;94010.13;5123966;28;20098;-73
2023/05/01 05:00:39;;;;;;;19.17;12.70;;;;;;;10.25;75.16;94009.69;5106197;28;20027;-74
2023/05/01 05:03:05;;;;;;;21.42;11.38;;;;;;;10.34;74.23;94005.22;5124043;28;20345;-74
2023/05/01 05:05:30;;;;;;;15.65;10.73;;;;;;;10.42;73.90;94012.47;5123861;28;20016;-73
2023/05/01 05:07:59;;;;;;;15.93;11.10;;;;;;;10.47;73.55;94013.41;5123733;28;20019;-74
2023/05/01 05:10:28;;;;;;;15.85;10.27;;;;;;;10.56;73.49;94014.22;5124331;28;20199;-74
2023/05/01 05:12:58;;;;;;;15.20;9.05;;;;;;;10.69;72.10;94010.66;5105995;28;20076;-73
2023/05/01 05:15:24;;;;;;;15.90;10.45;;;;;;;10.77;71.88;94015.22;5124321;28;20019;-75
2023/05/01 05:17:49;;;;;;;16.50;9.65;;;;;;;10.83;72.09;94015.88;5123901;28;20019;-76
2023/05/01 05:20:18;;;;;;;14.55;9.00;;;;;;;10.92;72.07;94030.00;5106264;28;20091;-76
2023/05/01 05:22:43;;;;;;;15.68;10.32;;;;;;;10.99;72.05;94025.00;5123821;28;20064;-74
2023/05/01 05:25:09;;;;;;;22.67;9.55;;;;;;;11.04;70.98;94037.41;5123997;28;20256;-76
2023/05/01 05:27:36;;;;;;;14.45;9.50;;;;;;;11.06;71.00;94037.09;5124431;28;20363;-72
2023/05/01 05:30:06;;;;;;;14.70;9.40;;;;;;;11.07;71.23;94038.66;5123743;28;20019;-72
2023/05/01 05:32:34;;;;;;;13.15;9.38;;;;;;;11.05;71.39;94049.63;5123944;28;20031;-72
2023/05/01 05:35:00;;;;;;;14.45;9.35;;;;;;;11.11;71.54;94048.38;5124000;28;20043;-72
2023/05/01 05:37:25;;;;;;;21.52;9.80;;;;;;;11.21;71.16;94056.13;5123942;28;20026;-73
2023/05/01 05:40:01;;;;;;;14.13;9.45;;;;;;;11.23;70.77;94053.94;5105514;28;20027;-73
2023/05/01 05:42:27;;;;;;;13.38;9.75;;;;;;;11.29;70.88;94043.88;5123692;28;20194;-73
2023/05/01 05:44:52;;;;;;;20.70;9.27;;;;;;;11.35;70.40;94044.50;5123773;28;20019;-72
2023/05/01 05:47:18;;;;;;;18.10;9.10;;;;;;;11.35;70.43;94049.84;5123361;28;20035;-73
2023/05/01 05:49:43;;;;;;;15.55;10.02;;;;;;;11.38;70.59;94042.00;5105172;28;20019;-73
2023/05/01 05:52:09;;;;;;;13.10;8.95;;;;;;;11.52;71.11;94049.06;5123489;28;20030;-72
2023/05/01 05:54:34;;;;;;;20.27;9.25;;;;;;;11.59;70.57;94047.50;5124025;28;20039;-73
2023/05/01 05:57:02;;;;;;;17.13;8.45;;;;;;;11.64;70.32;94049.22;5124602;28;20317;-75
2023/05/01 05:59:28;;;;;;;17.40;8.82;;;;;;;11.70;70.17;94044.50;5124472;28;20019;-74
2023/05/01 06:01:59;;;;;;;18.27;8.50;;;;;;;11.71;70.15;94057.56;5123603;28;20050;-77
2023/05/01 06:04:28;;;;;;;12.38;8.77;;;;;;;11.77;70.79;94056.28;5123815;28;20065;-74
2023/05/01 06:06:53;;;;;;;16.05;9.13;;;;;;;11.83;70.39;94068.38;5123613;28;20023;-74
2023/05/01 06:09:19;;;;;;;18.45;9.13;;;;;;;11.93;70.09;94061.97;5123464;28;20076;-74
2023/05/01 06:11:55;;;;;;;18.85;8.82;;;;;;;11.91;69.52;94058.06;5123597;28;20091;-73
2023/05/01 06:14:23;;;;;;;13.57;8.57;;;;;;;12.00;69.30;94070.28;5121468;28;20076;-73
2023/05/01 06:16:49;;;;;;;16.35;8.85;;;;;;;12.02;68.78;94065.41;5123404;28;20065;-75
2023/05/01 06:19:15;;;;;;;14.57;9.10;;;;;;;12.09;68.99;94066.81;5122787;28;20028;-75
2023/05/01 06:21:40;;;;;;;17.42;9.10;;;;;;;12.17;68.51;94069.47;5123061;28;20072;-74
2023/05/01 06:24:05;;;;;;;15.95;8.77;;;;;;;12.23;67.70;94070.88;5122697;28;20031;-75
2023/05/01 06:26:31;;;;;;;15.95;8.80;;;;;;;12.31;68.02;94071.16;5122699;28;20051;-74
2023/05/01 06:28:57;;;;;;;21.75;8.60;;;;;;;12.43;67.86;94065.94;5122592;28;20061;-74
2023/05/01 06:31:22;;;;;;;17.85;9.55;;;;;;;12.56;67.65;94073.00;5122710;28;20282;-75
2023/05/01 06:33:48;;;;;;;15.27;9.25;;;;;;;12.72;67.18;94069.78;5104228;28;20218;-75
2023/05/01 06:36:13;;;;;;;9.85;7.22;;;;;;;12.75;66.43;94069.94;5122884;28;20031;-74
2023/05/01 06:38:40;;;;;;;15.20;9.93;;;;;;;12.83;66.17;94071.00;5123016;28;20019;-75
2023/05/01 06:41:06;;;;;;;11.43;7.78;;;;;;;12.89;66.26;94069.72;5122233;28;20019;-76
2023/05/01 06:43:32;;;;;;;12.63;7.10;;;;;;;12.98;65.32;94073.13;5122425;28;20333;-75
2023/05/01 06:45:57;;;;;;;12.07;7.82;;;;;;;13.01;64.45;94067.13;5122677;28;20336;-74
2023/05/01 06:48:23;;;;;;;10.52;6.80;;;;;;;13.01;64.28;94077.84;5122427;28;20028;-73
2023/05/01 06:50:48;;;;;;;16.38;7.50;;;;;;;13.08;64.50;94076.56;5122305;28;20081;-74
2023/05/01 06:53:14;;;;;;;9.10;6.50;;;;;;;13.14;64.27;94073.34;5122538;28;20326;-74
2023/05/01 06:55:39;;;;;;;11.00;6.30;;;;;;;13.24;63.76;94072.97;5122814;28;20092;-75
2023/05/01 06:58:05;;;;;;;10.18;6.63;;;;;;;13.38;63.51;94069.31;5122388;28;20225;-73
2023/05/01 07:00:31;;;;;;;9.35;6.90;;;;;;;13.46;63.19;94071.16;5122266;28;20237;-73
2023/05/01 07:02:56;;;;;;;14.32;7.00;;;;;;;13.52;62.98;94069.84;5123633;28;20050;-71
2023/05/01 07:05:22;;;;;;;10.05;5.88;;;;;;;13.57;62.40;94076.91;5126307;28;20024;-71
2023/05/01 07:07:48;;;;;;;9.32;5.47;;;;;;;13.68;60.83;94078.09;5126113;28;20023;-72
2023/05/01 07:10:14;;;;;;;10.60;5.65;;;;;;;13.69;60.72;94076.97;5126524;28;20030;-71
2023/05/01 07:12:39;;;;;;;10.25;5.47;;;;;;;13.72;60.30;94073.66;5108477;28;20027;-71
2023/05/01 07:15:06;;;;;;;8.48;5.85;;;;;;;13.68;61.26;94074.59;5125482;28;20246;-71
2023/05/01 07:17:31;;;;;;;9.73;6.15;;;;;;;13.77;61.34;94086.06;5126070;28;20317;-71
2023/05/01 07:19:57;;;;;;;7.55;5.60;;;;;;;13.89;60.98;94079.97;5125660;28;20068;-71
2023/05/01 07:22:23;;;;;;;14.52;5.07;;;;;;;13.96;59.31;94085.59;5125982;28;20031;-71
2023/05/01 07:24:48;;;;;;;9.32;4.38;;;;;;;14.08;58.89;94084.84;5125717;28;20022;-71
2023/05/01 07:27:13;;;;;;;10.35;5.68;;;;;;;14.18;58.74;94079.84;5126182;28;20032;-71
2023/05/01 07:29:39;;;;;;;7.40;4.95;;;;;;;14.28;59.62;94088.63;5125913;28;20015;-71
2023/05/01 07:32:05;;;;;;;12.15;5.82;;;;;;;14.39;59.11;94085.19;5125847;28;20085;-71
2023/05/01 07:34:31;;;;;;;22.70;6.07;;;;;;;14.48;58.40;94081.63;5125670;28;20050;-71
2023/05/01 07:36:57;;;;;;;11.68;5.15;;;;;;;14.48;57.67;94078.97;5126113;28;20023;-71
2023/05/01 07:39:23;;;;;;;10.48;5.53;;;;;;;14.47;57.18;94077.38;5125748;28;20043;-71
2023/05/01 07:41:48;;;;;;;10.68;5.60;;;;;;;14.44;57.27;94082.28;5124620;28;20095;-71
2023/05/01 07:44:13;;;;;;;15.00;5.78;;;;;;;14.47;57.68;94080.88;5125597;28;20023;-71
2023/05/01 07:46:39;;;;;;;8.60;4.72;;;;;;;14.57;56.68;94082.34;5125717;28;20019;-70
2023/05/01 07:49:04;;;;;;;13.48;5.50;;;;;;;14.57;56.80;94077.78;5125650;28;20028;-71
2023/05/01 07:51:30;;;;;;;7.80;5.18;;;;;;;14.64;57.25;94086.06;5125606;28;20418;-71
2023/05/01 07:53:56;;;;;;;15.57;4.70;;;;;;;14.74;55.49;94081.38;5125436;28;20015;-71
2023/05/01 07:56:21;;;;;;;7.07;4.47;;;;;;;14.79;55.55;94076.56;5125257;28;20222;-71
2023/05/01 07:58:47;;;;;;;9.55;5.03;;;;;;;14.86;56.21;94086.75;5124335;28;20098;-76
2023/05/01 08:01:12;;;;;;;7.88;4.20;;;;;;;14.96;55.81;94086.31;5125514;28;20042;-86
2023/05/01 08:03:38;;;;;;;9.52;5.18;;;;;;;15.08;55.35;94088.22;5125446;28;20023;-87
2023/05/01 08:06:04;;;;;;;8.07;5.20;;;;;;;15.20;53.81;94087.44;5125383;28;20016;-84
2023/05/01 08:08:29;;;;;;;12.90;5.80;;;;;;;15.28;54.05;94078.47;5125578;28;20031;-83
2023/05/01 08:10:55;;;;;;;16.80;5.72;;;;;;;15.38;54.18;94085.28;5123834;28;20016;-83
2023/05/01 08:13:20;;;;;;;18.83;6.45;;;;;;;15.37;53.99;94086.44;5123465;28;20020;-81
2023/05/01 08:15:46;;;;;;;9.35;5.70;;;;;;;15.45;54.11;94086.31;5122521;28;20091;-80
2023/05/01 08:18:18;;;;;;;10.45;5.20;;;;;;;15.57;53.28;94076.66;5123222;28;20086;-81
2023/05/01 08:20:43;;;;;;;12.45;4.75;;;;;;;15.69;53.01;94083.91;5123540;28;20012;-81
2023/05/01 08:23:09;;;;;;;13.80;4.70;;;;;;;15.86;51.97;94082.91;5123135;28;20285;-81
2023/05/01 08:25:35;;;;;;;8.38;4.57;;;;;;;16.05;51.55;94083.03;5105124;28;20122;-81
2023/05/01 08:28:00;;;;;;;6.93;4.13;;;;;;;16.20;50.76;94085.00;5123282;28;20042;-81
2023/05/01 08:30:26;;;;;;;8.30;3.35;;;;;;;16.31;48.20;94081.84;5123786;28;20070;-81
2023/05/01 08:32:52;;;;;;;3.95;2.72;;;;;;;16.40;46.34;94082.44;5124064;28;20035;-81
2023/05/01 08:35:17;;;;;;;5.85;2.60;;;;;;;16.42;46.22;94088.25;5124386;28;20072;-81
2023/05/01 08:37:42;;;;;;;5.68;3.08;;;;;;;16.48;45.65;94086.88;5124829;28;20065;-81
2023/05/01 08:40:09;;;;;;;6.13;3.25;;;;;;;16.56;47.13;94085.94;5124664;28;20362;-81
2023/05/01 08:42:36;;;;;;;7.18;3.47;;;;;;;16.68;47.06;94087.00;5124779;28;20020;-81
2023/05/01 08:45:03;;;;;;;8.00;3.40;;;;;;;16.76;46.05;94078.00;5124940;28;20091;-81
2023/05/01 08:47:29;;;;;;;5.97;3.00;;;;;;;16.88;46.65;94077.94;5106776;28;20023;-81
2023/05/01 08:49:58;;;;;;;9.65;3.95;;;;;;;16.94;46.16;94076.56;5124513;28;20087;-81
2023/05/01 08:52:26;;;;;;;8.32;3.13;;;;;;;17.10;45.98;94079.25;5124756;28;20217;-81
2023/05/01 08:54:55;;;;;;;11.00;2.90;;;;;;;17.24;45.48;94076.88;5124664;28;20030;-81
2023/05/01 08:57:21;;;;;;;3.70;2.10;;;;;;;17.37;43.70;94072.16;5124068;28;20049;-81
2023/05/01 08:59:47;;;;;;;9.75;3.13;;;;;;;17.50;44.77;94074.75;5124113;28;20019;-81
2023/05/01 09:02:14;;;;;;;5.05;2.40;;;;;;;17.65;44.11;94069.31;5124590;28;20055;-81
2023/05/01 09:04:40;;;;;;;8.93;2.88;;;;;;;17.77;42.94;94073.81;5124558;28;20027;-81
2023/05/01 09:07:07;;;;;;;7.47;3.35;;;;;;;17.82;43.14;94076.22;5123997;28;20031;-81
2023/05/01 09:09:33;;;;;;;6.50;2.83;;;;;;;17.86;42.37;94070.16;5124131;28;20038;-81
2023/05/01 09:12:20;;;;;;;8.20;2.75;;;;;;;17.99;42.32;94068.88;5124295;28;20233;-81
2023/05/01 09:14:46;;;;;;;7.15;3.70;;;;;;;18.06;42.85;94068.25;5123954;28;20023;-81
2023/05/01 09:17:12;;;;;;;5.75;2.90;;;;;;;18.11;43.20;94066.03;5124226;28;20031;-81
2023/05/01 09:19:39;;;;;;;9.48;3.42;;;;;;;18.18;41.80;94055.38;5123960;28;20050;-82
2023/05/01 09:22:05;;;;;;;6.80;2.75;;;;;;;18.26;42.21;94056.31;5123843;28;20043;-82
2023/05/01 09:24:30;;;;;;;4.90;2.10;;;;;;;18.33;42.08;94058.34;5123843;28;20023;-81
2023/05/01 09:26:57;;;;;;;7.75;2.42;;;;;;;18.39;41.25;94059.63;5123391;28;20028;-81
2023/05/01 09:29:52;;;;;;;5.07;2.42;;;;;;;18.51;39.96;94066.78;5123415;28;20322;-82
2023/05/01 09:32:30;;;;;;;4.88;2.10;;;;;;;18.61;38.11;94069.66;5105663;28;20031;-82
2023/05/01 09:35:09;;;;;;;4.95;1.85;;;;;;;18.68;38.40;94065.53;5123714;28;20206;-81
2023/05/01 09:37:35;;;;;;;7.43;2.28;;;;;;;18.72;38.50;94071.78;5123954;28;20032;-82
2023/05/01 09:40:13;;;;;;;4.38;2.15;;;;;;;18.88;40.28;94063.59;5123072;28;20023;-80
2023/05/01 09:42:50;;;;;;;4.50;2.03;;;;;;;19.07;39.23;94062.75;5123296;28;20023;-81
2023/05/01 09:45:16;;;;;;;6.18;2.30;;;;;;;19.18;40.02;94061.78;5123080;28;20039;-81
2023/05/01 09:47:42;;;;;;;5.30;2.45;;;;;;;19.18;39.42;94058.28;5123547;28;20028;-81
2023/05/01 09:50:08;;;;;;;4.60;2.00;;;;;;;19.16;39.47;94063.28;5123892;28;20032;-81
2023/05/01 09:52:34;;;;;;;6.80;2.03;;;;;;;19.34;39.43;94067.03;5123441;28;20086;-81
2023/05/01 09:55:14;;;;;;;4.95;2.15;;;;;;;19.53;37.62;94049.16;5123642;28;20031;-81
2023/05/01 09:57:41;;;;;;;5.78;2.00;;;;;;;19.69;36.75;94052.47;5123188;28;20027;-81
2023/05/01 10:00:11;;;;;;;4.82;1.55;;;;;;;19.76;35.20;94040.97;5122988;28;20247;-81
2023/05/01 10:02:37;;;;;;;5.68;2.10;;;;;;;19.92;35.24;94043.50;5122667;28;20051;-81
2023/05/01 10:05:03;;;;;;;5.53;2.15;;;;;;;20.07;36.56;94045.25;5123207;28;20027;-83
2023/05/01 10:07:33;;;;;;;7.95;2.60;;;;;;;20.23;36.73;94047.72;5122945;28;20260;-82
2023/05/01 10:10:13;;;;;;;5.80;2.00;;;;;;;20.35;37.56;94044.00;5123164;28;20257;-83
2023/05/01 10:12:39;;;;;;;3.75;2.25;;;;;;;20.49;35.62;94054.19;5122758;28;20053;-82
2023/05/01 10:15:05;;;;;;;3.92;2.35;;;;;;;20.49;35.67;94048.78;5122998;28;20364;-82
2023/05/01 10:17:32;;;;;;;6.80;2.40;;;;;;;20.50;38.34;94053.84;5123282;28;20015;-82
2023/05/01 10:19:58;;;;;;;5.35;2.97;;;;;;;20.40;38.19;94046.38;5123248;28;20106;-82
2023/05/01 10:22:25;;;;;;;8.35;2.33;;;;;;;20.38;38.71;94054.09;5122825;28;20034;-82
2023/05/01 10:24:51;;;;;;;5.50;2.47;;;;;;;20.47;38.36;94041.03;5122725;28;20039;-81
2023/05/01 10:27:17;;;;;;;5.63;2.17;;;;;;;20.54;37.96;94045.75;5123396;28;20052;-82
2023/05/01 10:29:46;;;;;;;5.32;2.15;;;;;;;20.55;38.23;94036.47;5105090;28;20034;-82
2023/05/01 10:32:12;;;;;;;7.55;2.67;;;;;;;20.64;37.89;94045.88;5123063;28;20023;-82
2023/05/01 10:34:42;;;;;;;4.03;2.28;;;;;;;20.70;37.40;94043.63;5122785;28;20016;-81
2023/05/01 10:37:18;;;;;;;6.13;2.60;;;;;;;20.75;37.40;94050.63;5122909;28;20121;-82
2023/05/01 10:39:43;;;;;;;8.90;3.10;;;;;;;20.78;37.26;94045.25;5127312;28;20023;-82
2023/05/01 10:42:12;;;;;;;7.72;2.40;;;;;;;20.79;36.65;94054.13;5126945;28;20032;-82
2023/05/01 10:44:39;;;;;;;10.82;2.10;;;;;;;20.76;35.51;94055.66;5126591;28;20084;-81
2023/05/01 10:47:26;;;;;;;6.88;1.95;;;;;;;20.72;35.66;94051.34;5126995;28;20027;-82
2023/05/01 10:50:16;;;;;;;8.60;2.53;;;;;;;20.44;34.41;94047.97;5126815;28;20020;-81
2023/05/01 10:53:19;;;;;;;4.97;2.80;;;;;;;20.44;34.85;94044.50;5126824;28;20325;-82
2023/05/01 10:55:46;;;;;;;3.47;1.95;;;;;;;20.28;34.99;94038.53;5126697;28;20099;-81
2023/05/01 10:58:13;;;;;;;6.05;2.35;;;;;;;20.16;35.97;94040.31;5126597;28;20027;-81
2023/05/01 11:00:39;;;;;;;7.97;2.08;;;;;;;20.28;35.78;94049.34;5126393;28;20205;-81
2023/05/01 11:03:20;;;;;;;4.43;1.92;;;;;;;20.35;35.78;94041.28;5126508;28;20057;-81
2023/05/01 11:06:03;;;;;;;5.20;1.60;;;;;;;20.38;35.29;94040.56;5126596;28;20072;-81
2023/05/01 11:08:32;;;;;;;4.10;1.92;;;;;;;20.47;35.71;94046.44;5126044;28;20023;-81
2023/05/01 11:11:18;;;;;;;3.63;1.52;;;;;;;20.50;35.55;94040.31;5126585;28;20355;-81
2023/05/01 11:14:02;;;;;;;10.90;2.33;;;;;;;20.57;35.64;94050.41;5085252;28;20041;-82
2023/05/01 11:16:40;;;;;;;4.07;1.88;;;;;;;20.70;36.39;94048.25;5125875;28;20026;-81
2023/05/01 11:19:26;;;;;;;4.45;1.90;;;;;;;20.78;36.96;94049.84;5126447;28;20027;-82
2023/05/01 11:21:53;;;;;;;7.15;2.20;;;;;;;20.66;36.77;94056.34;5111803;28;20038;-81
2023/05/01 11:24:18;;;;;;;6.57;2.92;;;;;;;20.68;36.89;94048.63;5126109;28;20028;-81
2023/05/01 11:26:44;;;;;;;9.10;2.97;;;;;;;20.67;36.84;94051.72;5107952;28;20031;-81
2023/05/01 11:29:10;;;;;;;5.28;2.47;;;;;;;20.63;36.59;94044.31;5126335;28;20031;-81
2023/05/01 11:31:37;;;;;;;4.30;1.80;;;;;;;20.58;36.36;94047.38;5125909;28;20370;-81
2023/05/01 11:34:03;;;;;;;15.82;4.13;;;;;;;20.58;36.72;94044.66;5126172;28;20020;-82
2023/05/01 11:36:46;;;;;;;5.55;2.25;;;;;;;20.42;36.57;94038.66;5125948;28;20199;-81
2023/05/01 11:39:14;;;;;;;4.82;1.95;;;;;;;20.21;37.15;94047.31;5125857;28;20033;-81
2023/05/01 11:41:40;;;;;;;3.83;1.63;;;;;;;20.16;37.43;94042.25;5126018;28;20024;-81